Langdon Bay, United Kingdom
Current Conditions -  °F | °C
As of 11:50 AM on Sunday 25 Jan 2015 (Local Time) from EGMD Reporting Station
Broken Clouds Broken Clouds  
Wind Chill:   Ceiling: 4000
Heat Index:   Visibility: 6mi
Dew Point:   Wind: 8mph
Humidity: 81%   Direction: 240°WSW
Pressure: 30.48"   Gusts: NA
Location:  51.13°N, 1.35°E
Report Text: EGMD 251150Z 24007KT 9999 BKN040 07/04 Q1032
Loading
Personal Weather Stations






























Interactive Weather Map New forecast layout! Learn more

10-Day Weather Forecast

Advertisements
Track Severe Weather on mobile